Time;durP1;ratioP1;P1;durP2;ratioP2;P2;SDS_P1;SDS_P2;PMS_P1;PMS_P2;Temp;Humidity;BMP_temperature;BMP_pressure;BME280_temperature;BME280_humidity;BME280_pressure;Samples;Min_cycle;Max_cycle;Signal;HPM_P1;HPM_P2
2023/03/31 00:01:51;;;;;;;7.32;5.65;;;1.30;96.90;;;;;;4995393;28;20022;-80
2023/03/31 00:04:18;;;;;;;7.32;6.30;;;1.30;97.00;;;;;;4997071;28;20033;-81
2023/03/31 00:06:44;;;;;;;8.73;5.43;;;1.30;97.00;;;;;;4995112;28;20137;-79
2023/03/31 00:09:12;;;;;;;9.18;6.45;;;1.30;97.10;;;;;;4995899;28;20256;-81
2023/03/31 00:11:39;;;;;;;8.57;6.50;;;1.30;97.10;;;;;;4994092;28;20030;-79
2023/03/31 00:14:07;;;;;;;6.88;5.15;;;1.30;97.10;;;;;;5004988;28;20082;-79
2023/03/31 00:16:35;;;;;;;7.25;6.00;;;1.40;97.10;;;;;;4999164;28;20042;-79
2023/03/31 00:19:01;;;;;;;6.90;4.50;;;1.30;96.70;;;;;;4998030;28;20026;-80
2023/03/31 00:21:28;;;;;;;6.78;5.45;;;1.30;96.80;;;;;;4996647;28;20070;-79
2023/03/31 00:24:05;;;;;;;8.65;5.93;;;1.30;96.80;;;;;;4996999;28;20491;-80
2023/03/31 00:26:33;;;;;;;6.40;4.93;;;1.30;96.80;;;;;;4999542;28;20148;-80
2023/03/31 00:28:59;;;;;;;8.25;5.95;;;1.20;96.80;;;;;;5000281;28;20097;-80
2023/03/31 00:31:26;;;;;;;8.48;5.80;;;1.20;96.80;;;;;;4998212;28;20041;-80
2023/03/31 00:33:52;;;;;;;6.43;5.63;;;1.20;96.80;;;;;;5003359;28;20053;-78
2023/03/31 00:36:26;;;;;;;7.88;6.25;;;1.10;96.90;;;;;;4996442;28;20093;-79
2023/03/31 00:38:58;;;;;;;9.52;6.57;;;1.10;97.00;;;;;;5000722;28;20022;-77
2023/03/31 00:41:25;;;;;;;9.20;6.25;;;1.00;97.10;;;;;;5001451;28;20086;-79
2023/03/31 00:44:23;;;;;;;8.63;7.47;;;1.10;97.40;;;;;;5006517;28;20050;-79
2023/03/31 00:47:03;;;;;;;8.30;5.88;;;1.10;97.20;;;;;;4997332;28;20121;-78
2023/03/31 00:49:38;;;;;;;8.80;5.57;;;1.00;97.20;;;;;;4995184;28;20170;-79
2023/03/31 00:52:12;;;;;;;8.40;6.03;;;1.00;97.20;;;;;;4983364;28;20471;-79
2023/03/31 00:54:39;;;;;;;9.57;6.50;;;0.90;97.30;;;;;;4996505;28;20141;-81
2023/03/31 00:57:38;;;;;;;9.98;6.53;;;1.00;97.40;;;;;;4994829;28;20026;-79
2023/03/31 01:00:15;;;;;;;10.65;7.15;;;1.00;97.40;;;;;;4996020;28;20035;-79
2023/03/31 01:06:24;;;;;;;7.90;6.32;;;1.10;97.10;;;;;;4978509;28;20395;-80
2023/03/31 01:09:10;;;;;;;9.32;5.60;;;1.10;97.00;;;;;;4993551;28;20027;-81
2023/03/31 01:11:37;;;;;;;8.40;6.63;;;1.00;96.90;;;;;;4992569;28;20023;-80
2023/03/31 01:14:05;;;;;;;7.97;5.25;;;1.00;97.00;;;;;;5011085;28;20058;-79
2023/03/31 01:16:32;;;;;;;7.25;5.80;;;0.90;97.00;;;;;;4996088;28;20052;-79
2023/03/31 01:18:58;;;;;;;6.18;5.13;;;0.90;97.00;;;;;;4995679;28;20096;-78
2023/03/31 01:21:46;;;;;;;7.70;5.78;;;0.90;97.00;;;;;;4994799;28;20030;-81
2023/03/31 01:24:27;;;;;;;10.30;6.43;;;0.80;97.10;;;;;;4994956;28;20118;-78
2023/03/31 01:26:56;;;;;;;6.47;4.95;;;0.80;97.10;;;;;;4995576;28;20108;-78
2023/03/31 01:30:02;;;;;;;7.68;5.85;;;0.80;97.30;;;;;;4993033;28;20201;-80
2023/03/31 01:32:38;;;;;;;8.37;6.10;;;0.90;97.40;;;;;;4994021;28;20117;-79
2023/03/31 01:35:28;;;;;;;7.18;5.55;;;0.90;97.30;;;;;;4998538;28;20035;-79
2023/03/31 01:38:17;;;;;;;6.22;4.30;;;1.00;97.30;;;;;;5003834;28;20407;-77
2023/03/31 01:40:58;;;;;;;7.95;5.15;;;0.90;97.10;;;;;;4970566;28;20034;-79
2023/03/31 01:43:33;;;;;;;10.93;4.95;;;0.90;97.10;;;;;;5000491;28;20030;-81
2023/03/31 01:46:27;;;;;;;6.43;5.13;;;0.90;97.30;;;;;;4999221;28;20487;-79
2023/03/31 01:49:33;;;;;;;7.10;3.95;;;0.90;97.40;;;;;;5001121;28;20073;-79
2023/03/31 01:52:16;;;;;;;6.20;4.78;;;0.90;97.40;;;;;;4991680;28;20416;-80
2023/03/31 01:54:59;;;;;;;6.20;5.18;;;0.90;97.40;;;;;;5000861;28;20046;-79
2023/03/31 01:57:38;;;;;;;5.72;4.25;;;0.90;97.50;;;;;;4995504;28;20102;-79
2023/03/31 02:00:07;;;;;;;8.23;5.43;;;0.80;97.50;;;;;;5008682;28;20030;-80
2023/03/31 02:02:49;;;;;;;6.47;5.00;;;0.90;97.50;;;;;;4994652;28;20033;-77
2023/03/31 02:05:27;;;;;;;5.47;4.40;;;0.80;97.50;;;;;;4980789;28;20093;-79
2023/03/31 02:08:03;;;;;;;11.05;4.75;;;0.90;97.50;;;;;;4993285;28;20317;-78
2023/03/31 02:10:32;;;;;;;6.95;4.90;;;0.80;97.60;;;;;;4983894;28;20354;-79
2023/03/31 02:13:00;;;;;;;9.25;5.43;;;0.80;97.70;;;;;;4993886;28;20587;-80
2023/03/31 02:15:30;;;;;;;6.10;4.55;;;0.90;97.80;;;;;;4989359;28;20027;-80
2023/03/31 02:17:58;;;;;;;6.25;4.93;;;0.90;97.80;;;;;;4995097;28;20046;-80
2023/03/31 02:20:28;;;;;;;7.97;5.40;;;1.00;97.80;;;;;;4992312;28;20015;-78
2023/03/31 02:22:55;;;;;;;6.90;5.10;;;1.00;97.70;;;;;;4994290;28;20037;-80
2023/03/31 02:25:32;;;;;;;7.53;5.70;;;1.00;97.70;;;;;;4992483;28;20026;-80
2023/03/31 02:28:03;;;;;;;8.18;4.85;;;1.10;97.50;;;;;;4993422;28;20035;-79
2023/03/31 02:30:40;;;;;;;6.03;4.30;;;1.00;97.40;;;;;;4992183;28;20026;-78
2023/03/31 02:33:06;;;;;;;5.35;3.88;;;1.00;97.30;;;;;;4989800;28;20503;-80
2023/03/31 02:35:33;;;;;;;3.70;2.97;;;0.90;97.10;;;;;;5007070;28;20058;-79
2023/03/31 02:38:01;;;;;;;4.75;3.20;;;0.80;97.00;;;;;;4995451;28;20022;-79
2023/03/31 02:40:30;;;;;;;4.70;3.78;;;0.70;97.10;;;;;;4995331;28;20035;-79
2023/03/31 02:42:56;;;;;;;4.53;3.38;;;0.70;97.30;;;;;;4995348;28;20025;-79
2023/03/31 02:45:44;;;;;;;4.78;3.38;;;0.70;97.60;;;;;;4995562;28;20475;-78
2023/03/31 02:48:18;;;;;;;5.47;4.20;;;0.70;97.30;;;;;;4999839;28;20034;-82
2023/03/31 02:51:07;;;;;;;8.07;3.80;;;0.70;97.30;;;;;;5009664;28;20052;-79
2023/03/31 02:53:47;;;;;;;5.00;4.15;;;0.70;97.20;;;;;;4990979;28;20036;-80
2023/03/31 02:56:38;;;;;;;6.13;4.13;;;0.70;97.30;;;;;;5014151;28;20084;-80
2023/03/31 02:59:28;;;;;;;5.07;4.05;;;0.70;97.40;;;;;;4998233;28;20160;-80
2023/03/31 03:02:11;;;;;;;5.70;4.13;;;0.60;97.40;;;;;;5003236;28;20049;-81
2023/03/31 03:04:50;;;;;;;5.55;4.53;;;0.60;97.60;;;;;;5001935;28;20026;-80
2023/03/31 03:07:31;;;;;;;5.93;4.35;;;0.50;97.80;;;;;;4996762;28;20065;-81
2023/03/31 03:10:11;;;;;;;5.75;4.38;;;0.60;97.90;;;;;;5001953;28;20085;-80
2023/03/31 03:12:50;;;;;;;9.20;5.65;;;0.70;98.00;;;;;;4996252;28;20044;-80
2023/03/31 03:15:24;;;;;;;5.75;3.80;;;0.70;98.00;;;;;;5003958;28;20026;-80
2023/03/31 03:17:50;;;;;;;7.68;4.60;;;0.80;97.90;;;;;;4993279;28;20563;-80
2023/03/31 03:20:19;;;;;;;6.50;4.18;;;0.90;98.20;;;;;;5008419;28;20006;-81
2023/03/31 03:22:45;;;;;;;6.03;4.50;;;0.90;97.90;;;;;;5019314;28;20022;-80
2023/03/31 03:25:13;;;;;;;5.85;4.55;;;1.00;97.80;;;;;;4996821;28;20181;-80
2023/03/31 03:27:39;;;;;;;10.02;6.57;;;1.00;97.70;;;;;;4996137;28;20089;-78
2023/03/31 03:30:08;;;;;;;8.23;5.72;;;1.00;97.70;;;;;;4994738;28;20061;-79
2023/03/31 03:32:34;;;;;;;7.97;6.00;;;1.00;97.70;;;;;;5005192;28;20030;-80
2023/03/31 03:35:01;;;;;;;6.15;4.70;;;1.00;97.70;;;;;;4999632;28;20128;-80
2023/03/31 03:37:28;;;;;;;6.82;5.45;;;1.00;97.80;;;;;;5000868;28;20042;-79
2023/03/31 03:39:54;;;;;;;12.27;5.60;;;1.10;97.80;;;;;;4998936;28;20085;-79
2023/03/31 03:42:20;;;;;;;6.13;4.75;;;1.10;97.80;;;;;;4995649;28;20733;-81
2023/03/31 03:44:46;;;;;;;6.35;5.65;;;1.10;97.80;;;;;;4995453;28;20030;-80
2023/03/31 03:47:12;;;;;;;9.70;5.05;;;1.10;97.80;;;;;;4993069;28;20048;-78
2023/03/31 03:49:38;;;;;;;7.00;5.43;;;1.00;97.90;;;;;;4996623;28;20014;-80
2023/03/31 03:52:04;;;;;;;6.78;4.90;;;1.10;98.00;;;;;;4994140;28;20026;-79
2023/03/31 03:54:30;;;;;;;5.93;4.80;;;1.10;98.00;;;;;;4997747;28;20084;-80
2023/03/31 03:56:56;;;;;;;15.18;6.68;;;1.10;98.00;;;;;;4993705;28;20116;-79
2023/03/31 03:59:22;;;;;;;6.10;4.57;;;1.10;97.90;;;;;;4993347;28;20089;-80
2023/03/31 04:01:48;;;;;;;9.02;5.05;;;1.10;97.70;;;;;;4995149;28;20380;-81
2023/03/31 04:04:14;;;;;;;6.90;4.50;;;1.00;97.80;;;;;;4995384;28;20022;-79
2023/03/31 04:06:40;;;;;;;10.52;6.07;;;1.00;98.00;;;;;;4994891;28;20046;-80
2023/03/31 04:09:06;;;;;;;8.35;6.50;;;1.00;98.10;;;;;;4995212;28;20022;-80
2023/03/31 04:11:34;;;;;;;11.32;5.53;;;0.90;98.00;;;;;;4995062;28;20022;-81
2023/03/31 04:14:00;;;;;;;11.18;5.82;;;0.90;98.00;;;;;;5015513;28;20034;-80
2023/03/31 04:16:26;;;;;;;7.32;5.47;;;1.00;98.10;;;;;;5005596;28;20037;-80
2023/03/31 04:18:55;;;;;;;11.23;5.70;;;1.00;98.10;;;;;;4993337;28;20041;-80
2023/03/31 04:21:22;;;;;;;7.80;5.82;;;1.00;98.00;;;;;;4992394;28;20023;-79
2023/03/31 04:23:57;;;;;;;13.27;7.00;;;1.00;98.00;;;;;;4995755;28;20027;-80
2023/03/31 04:26:37;;;;;;;8.18;5.50;;;1.10;98.10;;;;;;5001335;28;20030;-80
2023/03/31 04:29:06;;;;;;;9.65;5.95;;;1.10;98.00;;;;;;4994334;28;20034;-79
2023/03/31 04:31:37;;;;;;;6.40;5.60;;;1.10;97.90;;;;;;4997694;28;20118;-79
2023/03/31 04:34:05;;;;;;;10.93;5.47;;;1.10;97.90;;;;;;4995106;28;20018;-81
2023/03/31 04:36:32;;;;;;;8.45;5.43;;;1.10;97.90;;;;;;4995850;28;20041;-80
2023/03/31 04:38:59;;;;;;;10.05;6.13;;;1.20;97.90;;;;;;4993916;28;20018;-80
2023/03/31 04:41:26;;;;;;;7.70;5.40;;;1.30;97.80;;;;;;4995933;28;20124;-80
2023/03/31 04:43:53;;;;;;;14.52;5.82;;;1.30;97.70;;;;;;4993510;28;20384;-80
2023/03/31 04:46:19;;;;;;;8.80;5.85;;;1.30;97.90;;;;;;4994573;28;20038;-80
2023/03/31 04:48:45;;;;;;;14.45;6.57;;;1.40;97.60;;;;;;4992169;28;20105;-80
2023/03/31 04:51:14;;;;;;;9.52;6.07;;;1.40;97.20;;;;;;4993667;28;20051;-81
2023/03/31 04:53:40;;;;;;;8.00;5.82;;;1.40;97.30;;;;;;4997213;28;20029;-79
2023/03/31 04:56:06;;;;;;;12.88;7.15;;;1.40;97.40;;;;;;5004933;28;20085;-81
2023/03/31 04:58:32;;;;;;;12.30;5.97;;;1.40;97.40;;;;;;4997927;28;20076;-81
2023/03/31 05:00:58;;;;;;;9.63;6.72;;;1.40;97.40;;;;;;4993765;28;20077;-81
2023/03/31 05:03:25;;;;;;;7.07;5.07;;;1.30;97.50;;;;;;4993456;28;20030;-80
2023/03/31 05:05:50;;;;;;;8.98;6.07;;;1.30;97.50;;;;;;4994197;28;20057;-80
2023/03/31 05:08:16;;;;;;;8.00;6.35;;;1.20;97.70;;;;;;4993859;28;20046;-81
2023/03/31 05:10:42;;;;;;;8.93;7.47;;;1.20;97.90;;;;;;4995562;28;20026;-79
2023/03/31 05:13:09;;;;;;;9.43;5.72;;;1.30;97.90;;;;;;4995550;28;20023;-80
2023/03/31 05:15:39;;;;;;;7.95;5.00;;;1.30;97.90;;;;;;4993416;28;20054;-80
2023/03/31 05:18:06;;;;;;;9.27;5.20;;;1.40;98.00;;;;;;4996252;28;20042;-79
2023/03/31 05:20:32;;;;;;;9.30;6.45;;;1.40;97.90;;;;;;4997818;28;20022;-79
2023/03/31 05:22:58;;;;;;;11.77;6.65;;;1.30;98.00;;;;;;4994628;28;20049;-81
2023/03/31 05:25:24;;;;;;;14.68;6.35;;;1.20;98.00;;;;;;4994804;28;20030;-80
2023/03/31 05:27:50;;;;;;;13.43;6.43;;;1.20;98.20;;;;;;4994770;28;20034;-81
2023/03/31 05:30:17;;;;;;;15.90;8.77;;;1.20;98.20;;;;;;5001807;28;20019;-81
2023/03/31 05:32:43;;;;;;;10.35;7.05;;;1.30;98.20;;;;;;4998735;28;20082;-80
2023/03/31 05:35:10;;;;;;;8.90;5.80;;;1.40;98.40;;;;;;4994178;28;20030;-82
2023/03/31 05:37:36;;;;;;;14.18;6.97;;;1.40;98.20;;;;;;4999334;28;20027;-80
2023/03/31 05:40:08;;;;;;;8.00;5.95;;;1.50;98.40;;;;;;4995400;28;20026;-81
2023/03/31 05:42:34;;;;;;;11.32;6.38;;;1.60;98.20;;;;;;4995320;28;20392;-81
2023/03/31 05:45:00;;;;;;;10.50;6.65;;;1.60;97.90;;;;;;4995757;28;20018;-80
2023/03/31 05:47:26;;;;;;;10.20;7.32;;;1.50;98.10;;;;;;4994979;28;20041;-81
2023/03/31 05:49:52;;;;;;;8.48;6.47;;;1.60;98.20;;;;;;4993837;28;20080;-81
2023/03/31 05:52:18;;;;;;;13.75;6.72;;;1.70;98.20;;;;;;4993833;28;20022;-81
2023/03/31 05:54:47;;;;;;;10.13;8.43;;;1.90;98.30;;;;;;4996101;28;20018;-81
2023/03/31 05:57:13;;;;;;;24.42;13.10;;;2.10;97.80;;;;;;4997926;28;20049;-81
2023/03/31 05:59:41;;;;;;;15.85;7.68;;;2.10;97.30;;;;;;5011094;28;20022;-81
2023/03/31 06:02:07;;;;;;;9.35;6.55;;;2.20;97.30;;;;;;5002116;28;20081;-81
2023/03/31 06:04:33;;;;;;;11.95;7.28;;;2.40;97.40;;;;;;4993833;28;20030;-82
2023/03/31 06:06:59;;;;;;;13.93;7.80;;;2.50;97.30;;;;;;4991458;28;20116;-80
2023/03/31 06:09:25;;;;;;;12.63;6.88;;;2.60;96.80;;;;;;4993545;28;20085;-82
2023/03/31 06:11:51;;;;;;;16.45;8.70;;;2.80;96.70;;;;;;4995415;28;20388;-83
2023/03/31 06:14:17;;;;;;;13.90;7.65;;;2.90;96.30;;;;;;4997816;28;20110;-81
2023/03/31 06:16:43;;;;;;;10.23;6.55;;;2.90;95.90;;;;;;4997461;28;20042;-81
2023/03/31 06:19:09;;;;;;;9.80;6.45;;;2.80;95.60;;;;;;4997249;28;20356;-81
2023/03/31 06:21:35;;;;;;;12.57;7.28;;;2.70;95.60;;;;;;4998762;28;20149;-81
2023/03/31 06:24:01;;;;;;;8.85;6.82;;;2.70;95.80;;;;;;4998955;28;20038;-81
2023/03/31 06:26:27;;;;;;;12.73;7.40;;;2.70;95.80;;;;;;4999494;28;20048;-81
2023/03/31 06:28:53;;;;;;;16.98;8.10;;;2.80;95.90;;;;;;4999097;28;20014;-83
2023/03/31 06:31:22;;;;;;;10.63;7.90;;;2.70;95.60;;;;;;4998343;28;20058;-81
2023/03/31 06:33:48;;;;;;;15.27;9.15;;;2.80;95.70;;;;;;4997236;28;20039;-81
2023/03/31 06:36:16;;;;;;;10.68;7.88;;;2.90;95.60;;;;;;4997488;28;20510;-80
2023/03/31 06:38:43;;;;;;;12.70;8.70;;;2.90;95.50;;;;;;4996058;28;20369;-81
2023/03/31 06:41:12;;;;;;;12.13;8.43;;;2.80;95.20;;;;;;4999631;28;20026;-81
2023/03/31 06:43:37;;;;;;;14.98;8.60;;;2.80;95.50;;;;;;5016809;28;20022;-82
2023/03/31 06:46:04;;;;;;;15.57;9.18;;;2.90;95.60;;;;;;5000241;28;20111;-81
2023/03/31 06:48:30;;;;;;;9.60;8.52;;;3.00;95.40;;;;;;4999021;28;20027;-80
2023/03/31 06:51:00;;;;;;;12.98;8.98;;;3.10;95.50;;;;;;4997031;28;20034;-79
2023/03/31 06:53:26;;;;;;;11.52;8.15;;;3.20;95.20;;;;;;4999995;28;20023;-82
2023/03/31 06:55:53;;;;;;;13.73;8.32;;;3.20;95.10;;;;;;4996174;28;20030;-82
2023/03/31 06:58:18;;;;;;;15.77;8.77;;;3.20;94.90;;;;;;4998175;28;20472;-81
2023/03/31 07:00:47;;;;;;;10.18;8.25;;;3.20;94.90;;;;;;5000898;28;20033;-81
2023/03/31 07:03:17;;;;;;;11.57;9.02;;;3.30;94.80;;;;;;5010443;28;20019;-82
2023/03/31 07:05:50;;;;;;;13.18;9.57;;;3.30;94.90;;;;;;5000538;28;20034;-81
2023/03/31 07:08:16;;;;;;;11.18;8.07;;;3.40;94.70;;;;;;4998752;28;20126;-81
2023/03/31 07:10:45;;;;;;;14.60;9.40;;;3.40;94.30;;;;;;4997988;28;20464;-80
2023/03/31 07:13:12;;;;;;;13.90;9.82;;;3.30;94.40;;;;;;5006019;28;20026;-82
2023/03/31 07:15:38;;;;;;;21.27;10.52;;;3.30;94.50;;;;;;5011016;28;20029;-81
2023/03/31 07:18:07;;;;;;;14.82;9.57;;;3.30;94.50;;;;;;5001999;28;20499;-80
2023/03/31 07:20:33;;;;;;;18.83;9.43;;;3.40;94.40;;;;;;4999306;28;20022;-82
2023/03/31 07:22:59;;;;;;;17.70;10.75;;;3.30;94.30;;;;;;5000728;28;20033;-82
2023/03/31 07:25:25;;;;;;;15.10;9.75;;;3.20;94.40;;;;;;5013068;28;20078;-81
2023/03/31 07:27:51;;;;;;;17.08;9.48;;;3.10;94.70;;;;;;4995484;28;20038;-82
2023/03/31 07:30:18;;;;;;;16.33;10.52;;;3.30;94.90;;;;;;4998552;28;20022;-82
2023/03/31 07:32:49;;;;;;;15.07;10.23;;;3.40;94.70;;;;;;5004304;28;20026;-81
2023/03/31 07:35:19;;;;;;;13.63;10.13;;;3.40;94.70;;;;;;4997376;28;20034;-81
2023/03/31 07:37:46;;;;;;;17.63;9.63;;;3.50;94.50;;;;;;4997043;28;20042;-82
2023/03/31 07:40:16;;;;;;;20.35;10.05;;;3.50;94.10;;;;;;4995998;28;20081;-81
2023/03/31 07:42:42;;;;;;;22.38;11.50;;;3.40;94.20;;;;;;4996732;28;20062;-80
2023/03/31 07:45:12;;;;;;;15.93;10.23;;;3.40;94.30;;;;;;5000621;28;20022;-82
2023/03/31 07:47:38;;;;;;;14.30;9.27;;;3.40;94.30;;;;;;4997316;28;20026;-81
2023/03/31 07:50:06;;;;;;;14.98;8.20;;;3.40;94.40;;;;;;4995387;28;20026;-81
2023/03/31 07:52:32;;;;;;;;;;;3.40;94.40;;;;;;4998525;28;20125;-81
2023/03/31 07:54:57;;;;;;;14.23;8.00;;;3.40;94.50;;;;;;5010417;28;19973;-80
2023/03/31 07:57:23;;;;;;;13.55;10.50;;;3.40;94.40;;;;;;5007692;28;20515;-81
2023/03/31 07:59:49;;;;;;;13.27;8.98;;;3.40;94.50;;;;;;4995793;28;20393;-81
2023/03/31 08:02:21;;;;;;;17.02;9.70;;;3.40;94.50;;;;;;4994920;28;20045;-81
2023/03/31 08:04:47;;;;;;;14.07;9.50;;;3.40;94.20;;;;;;4997411;28;20018;-83
2023/03/31 08:07:15;;;;;;;18.33;10.52;;;3.30;94.40;;;;;;4998327;28;20030;-81
2023/03/31 08:09:44;;;;;;;18.63;9.82;;;3.40;94.50;;;;;;4998897;28;20051;-82
2023/03/31 08:12:11;;;;;;;19.17;10.38;;;3.40;94.40;;;;;;5001259;28;20026;-81
2023/03/31 08:14:38;;;;;;;11.73;8.88;;;3.40;94.50;;;;;;5002630;28;20045;-82
2023/03/31 08:17:04;;;;;;;14.82;8.30;;;3.40;94.40;;;;;;5000587;28;20161;-81
2023/03/31 08:19:30;;;;;;;17.75;8.90;;;3.50;94.60;;;;;;5002320;28;20030;-81
2023/03/31 08:21:56;;;;;;;14.00;7.45;;;3.60;94.50;;;;;;5015549;28;20050;-82
2023/03/31 08:24:22;;;;;;;17.23;8.18;;;3.70;94.10;;;;;;4995648;28;20027;-81
2023/03/31 08:26:48;;;;;;;17.35;9.20;;;3.70;94.20;;;;;;4995766;28;20559;-82
2023/03/31 08:29:14;;;;;;;13.63;8.43;;;3.80;94.40;;;;;;4997319;28;20026;-83
2023/03/31 08:31:40;;;;;;;15.75;9.20;;;4.00;94.30;;;;;;4997880;28;20019;-82
2023/03/31 08:34:06;;;;;;;13.90;7.57;;;4.10;94.00;;;;;;5001080;28;20352;-81
2023/03/31 08:36:32;;;;;;;11.57;8.65;;;4.20;93.40;;;;;;5012273;28;20025;-80
2023/03/31 08:38:59;;;;;;;8.90;7.13;;;4.10;93.30;;;;;;5012540;28;20032;-80
2023/03/31 08:41:48;;;;;;;12.45;7.40;;;3.90;93.30;;;;;;5001010;28;20073;-81
2023/03/31 08:44:25;;;;;;;16.35;7.15;;;3.90;93.40;;;;;;4996016;28;20026;-81
2023/03/31 08:46:54;;;;;;;15.05;8.65;;;4.00;93.70;;;;;;4998903;28;20077;-81
2023/03/31 08:49:21;;;;;;;11.68;6.45;;;4.10;93.70;;;;;;4999097;28;20093;-82
2023/03/31 08:51:56;;;;;;;9.48;7.00;;;4.30;93.30;;;;;;4996153;28;20118;-83
2023/03/31 08:54:31;;;;;;;17.50;9.25;;;4.20;92.80;;;;;;4999268;28;20022;-83
2023/03/31 08:56:57;;;;;;;13.77;8.02;;;4.00;92.90;;;;;;5014760;28;20559;-82
2023/03/31 08:59:23;;;;;;;13.35;8.63;;;3.90;93.30;;;;;;4999030;28;21099;-81
2023/03/31 09:02:25;;;;;;;13.90;8.50;;;3.90;93.30;;;;;;4994665;28;20030;-81
2023/03/31 09:05:10;;;;;;;15.30;7.68;;;3.80;93.40;;;;;;4997073;28;20077;-81
2023/03/31 09:08:06;;;;;;;13.23;8.20;;;3.70;93.50;;;;;;4996769;28;20046;-80
2023/03/31 09:10:57;;;;;;;12.80;7.40;;;3.70;93.90;;;;;;5001055;28;20034;-81
2023/03/31 09:13:34;;;;;;;10.70;7.25;;;3.80;93.70;;;;;;4998708;28;20038;-82
2023/03/31 09:16:24;;;;;;;12.70;7.57;;;3.80;93.80;;;;;;4999294;28;20034;-80
2023/03/31 09:18:54;;;;;;;10.93;6.93;;;3.90;93.70;;;;;;5002662;28;20129;-81
2023/03/31 09:21:37;;;;;;;13.55;8.00;;;3.90;93.70;;;;;;5000057;28;20018;-81
2023/03/31 09:24:10;;;;;;;13.43;7.63;;;4.00;93.70;;;;;;5002963;28;20030;-82
2023/03/31 09:26:38;;;;;;;12.10;8.32;;;4.10;93.70;;;;;;4997623;28;20669;-82
2023/03/31 09:29:14;;;;;;;9.85;6.10;;;4.20;93.60;;;;;;4997199;28;20025;-81
2023/03/31 09:31:42;;;;;;;14.10;7.35;;;4.20;93.20;;;;;;4995110;28;20092;-81
2023/03/31 09:34:20;;;;;;;8.27;6.03;;;4.10;93.10;;;;;;5007335;28;20023;-83
2023/03/31 09:36:46;;;;;;;10.15;5.45;;;4.10;93.10;;;;;;5006738;28;20037;-82
2023/03/31 09:39:14;;;;;;;14.10;4.78;;;4.00;93.30;;;;;;4997315;28;20015;-81
2023/03/31 09:41:50;;;;;;;8.45;5.43;;;4.10;93.40;;;;;;4996571;28;20094;-81
2023/03/31 09:44:27;;;;;;;8.52;6.03;;;4.10;93.40;;;;;;4993702;28;20022;-82
2023/03/31 09:46:54;;;;;;;8.82;5.57;;;4.20;93.20;;;;;;4994627;28;20577;-83
2023/03/31 09:49:27;;;;;;;8.55;6.40;;;4.20;93.20;;;;;;4995359;28;20026;-82
2023/03/31 09:52:06;;;;;;;9.13;5.70;;;4.20;93.20;;;;;;4994539;28;20037;-81
2023/03/31 09:54:52;;;;;;;12.02;5.85;;;4.20;93.00;;;;;;4995296;28;20023;-81
2023/03/31 09:57:38;;;;;;;12.10;5.00;;;4.10;93.20;;;;;;5004126;28;20018;-82
2023/03/31 10:00:13;;;;;;;8.77;5.32;;;4.20;93.30;;;;;;4991714;28;20034;-82
2023/03/31 10:02:52;;;;;;;8.75;5.07;;;4.20;93.00;;;;;;4997260;28;20082;-83
2023/03/31 10:05:31;;;;;;;6.85;4.95;;;4.20;93.10;;;;;;4994869;28;20080;-82
2023/03/31 10:08:16;;;;;;;8.25;4.45;;;4.30;93.10;;;;;;5010235;28;20034;-81
2023/03/31 10:10:49;;;;;;;7.95;4.63;;;4.30;93.10;;;;;;4998124;28;20388;-82
2023/03/31 10:13:22;;;;;;;13.82;5.03;;;4.30;93.10;;;;;;4993345;28;20217;-82
2023/03/31 10:15:52;;;;;;;11.05;4.95;;;4.40;92.80;;;;;;4996128;28;20041;-82
2023/03/31 10:18:19;;;;;;;8.63;5.35;;;4.30;92.90;;;;;;5016285;28;20118;-82
2023/03/31 10:20:50;;;;;;;9.18;4.82;;;4.40;93.10;;;;;;5006528;28;20026;-81
2023/03/31 10:23:31;;;;;;;11.25;6.80;;;4.40;92.90;;;;;;5000816;28;20023;-80
2023/03/31 10:25:58;;;;;;;10.48;5.50;;;4.40;92.80;;;;;;5012157;28;20065;-82
2023/03/31 10:28:25;;;;;;;10.63;4.90;;;4.40;92.80;;;;;;5001319;28;20134;-82
2023/03/31 10:31:02;;;;;;;6.70;4.80;;;4.40;92.80;;;;;;4996793;28;20030;-80
2023/03/31 10:33:33;;;;;;;8.90;5.50;;;4.40;92.80;;;;;;4996613;28;20404;-82
2023/03/31 10:36:20;;;;;;;11.23;5.03;;;4.40;92.80;;;;;;4995183;28;20018;-83
2023/03/31 10:38:49;;;;;;;9.88;4.78;;;4.50;92.80;;;;;;4993281;28;20133;-82
2023/03/31 10:41:27;;;;;;;14.40;5.30;;;4.50;92.90;;;;;;4994362;28;20105;-82
2023/03/31 10:43:58;;;;;;;10.23;5.40;;;4.50;92.80;;;;;;4992135;28;20395;-81
2023/03/31 10:46:41;;;;;;;14.40;5.20;;;4.60;92.80;;;;;;4993981;28;20092;-81
2023/03/31 10:49:26;;;;;;;9.63;5.50;;;4.60;92.70;;;;;;4993607;28;20026;-83
2023/03/31 10:51:57;;;;;;;10.50;5.30;;;4.60;92.60;;;;;;4993434;28;20109;-82
2023/03/31 10:54:24;;;;;;;10.75;5.57;;;4.60;92.70;;;;;;4994453;28;20349;-81
2023/03/31 10:57:04;;;;;;;12.95;7.00;;;4.60;92.70;;;;;;4992642;28;20431;-82
2023/03/31 10:59:53;;;;;;;17.17;6.28;;;4.60;92.60;;;;;;5008983;28;20033;-81
2023/03/31 11:02:46;;;;;;;15.55;6.25;;;4.50;92.70;;;;;;4994685;28;20141;-83
2023/03/31 11:05:32;;;;;;;11.07;4.88;;;4.50;93.10;;;;;;4994322;28;20025;-82
2023/03/31 11:08:26;;;;;;;9.48;6.00;;;4.40;93.10;;;;;;4998952;28;20040;-82
2023/03/31 11:10:58;;;;;;;10.32;6.68;;;4.30;93.50;;;;;;4998424;28;20030;-82
2023/03/31 11:13:42;;;;;;;9.07;6.68;;;4.20;93.90;;;;;;4999664;28;20064;-83
2023/03/31 11:16:26;;;;;;;12.55;5.88;;;4.20;94.10;;;;;;5003993;28;20130;-81
2023/03/31 11:19:11;;;;;;;8.43;6.05;;;4.20;94.20;;;;;;5008049;28;20109;-83
2023/03/31 11:21:55;;;;;;;9.52;5.82;;;4.20;94.20;;;;;;4999557;28;20073;-83
2023/03/31 11:24:35;;;;;;;8.73;5.45;;;4.20;94.40;;;;;;5001084;28;20507;-81
2023/03/31 11:27:31;;;;;;;8.38;5.75;;;4.20;94.50;;;;;;4998309;28;20058;-81
2023/03/31 11:30:13;;;;;;;13.70;6.32;;;4.20;94.50;;;;;;5001930;28;20054;-82
2023/03/31 11:33:10;;;;;;;9.23;6.18;;;4.20;94.60;;;;;;4996410;28;20548;-82
2023/03/31 11:35:42;;;;;;;10.50;6.63;;;4.30;94.50;;;;;;4994517;28;20089;-83
2023/03/31 11:38:11;;;;;;;10.05;6.50;;;4.40;94.50;;;;;;5005470;28;20054;-81
2023/03/31 11:40:58;;;;;;;16.42;7.95;;;4.40;94.60;;;;;;4999242;28;20034;-82
2023/03/31 11:43:41;;;;;;;16.33;7.07;;;4.40;94.80;;;;;;4996432;28;20048;-83
2023/03/31 11:46:25;;;;;;;14.25;6.90;;;4.50;94.80;;;;;;4995965;28;20027;-83
2023/03/31 11:48:56;;;;;;;13.93;6.93;;;4.60;94.60;;;;;;4995536;28;20022;-83
2023/03/31 11:51:26;;;;;;;9.60;7.28;;;4.60;94.70;;;;;;4994990;28;20057;-82
2023/03/31 11:53:55;;;;;;;11.73;7.25;;;4.70;94.70;;;;;;4996577;28;20030;-82
2023/03/31 11:56:27;;;;;;;12.38;6.75;;;4.70;94.60;;;;;;4995419;28;20034;-83
2023/03/31 11:58:56;;;;;;;11.15;6.65;;;4.80;94.50;;;;;;4998101;28;20057;-83
2023/03/31 12:01:45;;;;;;;13.63;7.53;;;4.80;94.60;;;;;;4996385;28;20026;-82
2023/03/31 12:04:23;;;;;;;15.00;8.02;;;4.80;94.70;;;;;;4996906;28;20105;-82
2023/03/31 12:06:52;;;;;;;10.38;6.90;;;4.70;94.60;;;;;;4996301;28;20120;-82
2023/03/31 12:09:53;;;;;;;10.25;8.15;;;4.70;94.70;;;;;;4996303;28;20108;-81
2023/03/31 12:12:26;;;;;;;12.18;7.65;;;4.80;94.60;;;;;;4986612;28;20049;-83
2023/03/31 12:15:18;;;;;;;12.13;7.45;;;4.80;94.50;;;;;;5001475;28;20021;-82
2023/03/31 12:17:49;;;;;;;12.93;8.60;;;4.70;94.50;;;;;;5004781;28;20046;-81
2023/03/31 12:20:40;;;;;;;17.52;8.52;;;4.70;94.50;;;;;;4997968;28;20101;-80
2023/03/31 12:23:14;;;;;;;14.77;9.35;;;4.60;94.60;;;;;;4996205;28;20019;-81
2023/03/31 12:25:56;;;;;;;12.18;8.43;;;4.50;94.80;;;;;;4995267;28;20065;-82
2023/03/31 12:28:24;;;;;;;12.13;6.90;;;4.40;94.90;;;;;;4994492;28;20435;-81
2023/03/31 12:30:50;;;;;;;10.60;6.80;;;4.40;94.90;;;;;;4996428;28;20515;-82
2023/03/31 12:33:20;;;;;;;11.18;7.53;;;4.40;95.10;;;;;;4997111;28;20077;-81
2023/03/31 12:36:03;;;;;;;15.57;9.57;;;4.30;95.20;;;;;;4995908;28;20065;-82
2023/03/31 12:38:41;;;;;;;10.88;7.13;;;4.20;95.30;;;;;;4995951;28;20025;-81
2023/03/31 12:41:16;;;;;;;12.18;7.60;;;4.20;95.40;;;;;;5001637;28;20487;-82
2023/03/31 12:43:45;;;;;;;11.20;7.47;;;4.10;95.40;;;;;;4997865;28;20030;-83
2023/03/31 12:46:17;;;;;;;14.63;9.00;;;4.10;95.60;;;;;;4982359;28;20046;-83
2023/03/31 12:49:26;;;;;;;13.18;9.95;;;4.10;95.70;;;;;;4995800;28;20446;-82
2023/03/31 12:52:00;;;;;;;12.85;8.05;;;4.10;95.60;;;;;;4989381;28;20022;-82
2023/03/31 12:55:05;;;;;;;11.98;7.70;;;4.00;96.00;;;;;;4994560;28;20092;-82
2023/03/31 12:57:31;;;;;;;13.02;9.98;;;3.90;96.10;;;;;;4995477;28;20037;-81
2023/03/31 13:00:13;;;;;;;17.70;9.18;;;3.80;96.30;;;;;;4996308;28;20088;-82
2023/03/31 13:02:39;;;;;;;11.10;7.05;;;3.90;96.60;;;;;;4997203;28;20086;-82
2023/03/31 13:05:36;;;;;;;12.00;9.38;;;4.00;96.60;;;;;;4997089;28;20010;-80
2023/03/31 13:08:04;;;;;;;15.23;8.82;;;3.90;96.70;;;;;;4995697;28;20170;-82
2023/03/31 13:10:31;;;;;;;13.40;8.32;;;3.90;96.80;;;;;;4994981;28;20030;-82
2023/03/31 13:13:24;;;;;;;9.65;6.95;;;4.00;96.90;;;;;;4993688;28;20033;-82
2023/03/31 13:15:55;;;;;;;13.73;8.88;;;3.90;96.80;;;;;;5005195;28;20072;-81
2023/03/31 13:18:22;;;;;;;15.68;9.63;;;3.90;97.00;;;;;;5016928;28;20124;-83
2023/03/31 13:21:18;;;;;;;19.00;9.63;;;3.90;97.10;;;;;;5017214;28;20076;-83
2023/03/31 13:23:45;;;;;;;17.30;9.23;;;4.00;97.10;;;;;;4973696;28;20525;-82